Time;durP1;ratioP1;P1;durP2;ratioP2;P2;SDS_P1;SDS_P2;PMS_P1;PMS_P2;Temp;Humidity;BMP_temperature;BMP_pressure;BME280_temperature;BME280_humidity;BME280_pressure;Samples;Min_cycle;Max_cycle;Signal;HPM_P1;HPM_P2
2022/12/03 00:02:03;;;;;;;35.03;22.83;;;4.60;99.90;;;;;;5085778;28;20448;-63
2022/12/03 00:04:29;;;;;;;34.35;22.33;;;4.60;99.90;;;;;;5075578;28;20039;-63
2022/12/03 00:06:54;;;;;;;34.50;22.65;;;4.90;1.00;;;;;;5091173;28;20043;-63
2022/12/03 00:09:20;;;;;;;35.33;21.92;;;4.50;1.00;;;;;;5091483;28;20089;-63
2022/12/03 00:11:45;;;;;;;32.17;21.70;;;4.50;1.00;;;;;;5090696;28;20040;-63
2022/12/03 00:14:11;;;;;;;33.55;21.95;;;4.40;1.00;;;;;;5082552;28;20039;-63
2022/12/03 00:16:36;;;;;;;34.35;22.42;;;4.30;1.00;;;;;;5071318;28;20545;-63
2022/12/03 00:19:02;;;;;;;31.35;22.15;;;4.30;1.00;;;;;;5071477;28;20451;-63
2022/12/03 00:21:27;;;;;;;40.35;21.05;;;4.20;1.00;;;;;;5071094;28;20075;-63
2022/12/03 00:23:53;;;;;;;34.38;21.65;;;4.10;1.00;;;;;;5087080;28;20036;-63
2022/12/03 00:26:18;;;;;;;33.55;21.20;;;3.90;1.00;;;;;;5082384;28;20032;-63
2022/12/03 00:28:44;;;;;;;30.80;20.67;;;3.80;1.00;;;;;;5073377;28;20043;-63
2022/12/03 00:31:10;;;;;;;32.90;21.20;;;3.60;1.00;;;;;;5085583;28;20339;-63
2022/12/03 00:33:35;;;;;;;33.10;21.80;;;3.60;1.00;;;;;;5076121;28;20052;-62
2022/12/03 00:36:01;;;;;;;31.20;20.25;;;3.50;1.00;;;;;;5071043;28;20044;-62
2022/12/03 00:38:26;;;;;;;33.40;21.48;;;3.30;1.00;;;;;;5071065;28;20520;-62
2022/12/03 00:40:52;;;;;;;30.55;20.40;;;3.30;1.00;;;;;;5071184;28;20389;-63
2022/12/03 00:43:17;;;;;;;35.85;21.92;;;3.40;1.00;;;;;;5080839;28;20044;-62
2022/12/03 00:45:43;;;;;;;31.35;19.35;;;3.30;1.00;;;;;;5091604;28;20051;-62
2022/12/03 00:48:08;;;;;;;35.58;21.67;;;3.30;1.00;;;;;;5089681;28;20036;-63
2022/12/03 00:50:34;;;;;;;31.00;19.60;;;3.20;1.00;;;;;;5092002;28;20402;-63
2022/12/03 00:52:59;;;;;;;32.75;20.50;;;3.10;1.00;;;;;;5095124;28;20036;-62
2022/12/03 00:55:25;;;;;;;34.50;20.38;;;3.20;16.00;;;;;;5094681;28;20093;-63
2022/12/03 00:57:50;;;;;;;37.20;21.55;;;3.00;25.50;;;;;;5076468;28;20048;-63
2022/12/03 01:00:16;;;;;;;33.35;20.88;;;3.20;38.10;;;;;;5077788;28;20479;-62
2022/12/03 01:02:42;;;;;;;35.15;21.02;;;3.20;43.90;;;;;;5057317;28;20043;-63
2022/12/03 01:05:08;;;;;;;33.10;20.13;;;3.40;97.20;;;;;;5074582;28;20120;-63
2022/12/03 01:07:35;;;;;;;38.50;21.75;;;3.60;99.90;;;;;;5077538;28;20044;-63
2022/12/03 01:10:01;;;;;;;31.60;21.10;;;3.50;99.90;;;;;;5094663;28;20040;-63
2022/12/03 01:12:26;;;;;;;35.95;19.75;;;3.70;99.90;;;;;;5074138;28;20033;-63
2022/12/03 01:14:52;;;;;;;34.20;20.25;;;3.80;99.90;;;;;;5074293;28;20056;-63
2022/12/03 01:17:17;;;;;;;33.22;18.20;;;4.10;99.90;;;;;;5075827;28;20048;-63
2022/12/03 01:19:43;;;;;;;30.65;17.58;;;3.80;99.90;;;;;;5091066;28;20048;-62
2022/12/03 01:22:09;;;;;;;31.40;18.13;;;4.30;99.90;;;;;;5094416;28;20036;-63
2022/12/03 01:24:34;;;;;;;37.17;17.98;;;4.40;99.90;;;;;;5094554;28;20043;-63
2022/12/03 01:27:00;;;;;;;32.33;18.02;;;4.50;1.00;;;;;;5078097;28;20498;-63
2022/12/03 01:29:26;;;;;;;27.80;16.33;;;4.70;1.00;;;;;;5077503;28;20098;-63
2022/12/03 01:34:35;;;;;;;29.55;16.30;;;5.30;99.90;;;;;;5076225;28;20110;-63
2022/12/03 01:37:01;;;;;;;26.30;16.25;;;5.40;1.00;;;;;;5076084;28;20478;-63
2022/12/03 01:39:26;;;;;;;25.30;15.73;;;5.40;1.00;;;;;;5080780;28;20980;-63
2022/12/03 01:41:53;;;;;;;26.77;16.13;;;5.70;1.00;;;;;;5086725;28;20032;-63
2022/12/03 01:44:26;;;;;;;24.67;15.68;;;5.80;1.00;;;;;;5093949;28;20204;-63
2022/12/03 01:46:54;;;;;;;24.98;15.85;;;6.10;1.00;;;;;;5094235;28;20047;-63
2022/12/03 01:49:24;;;;;;;26.25;15.23;;;6.00;1.00;;;;;;5079812;28;20113;-63
2022/12/03 01:51:51;;;;;;;24.90;15.45;;;6.20;1.00;;;;;;5082489;28;20048;-63
2022/12/03 01:54:19;;;;;;;24.95;15.07;;;6.00;99.90;;;;;;5094158;28;20040;-63
2022/12/03 01:56:46;;;;;;;23.95;15.02;;;6.20;99.90;;;;;;5093142;28;20096;-63
2022/12/03 01:59:17;;;;;;;25.25;14.02;;;6.20;99.90;;;;;;5092331;28;20044;-63
2022/12/03 02:01:43;;;;;;;22.90;13.55;;;6.30;99.90;;;;;;5093665;28;20040;-63
2022/12/03 02:04:15;;;;;;;26.23;14.13;;;6.30;99.90;;;;;;5093814;28;20028;-63
2022/12/03 02:06:42;;;;;;;23.25;13.50;;;6.50;99.90;;;;;;5092430;28;20085;-63
2022/12/03 02:09:12;;;;;;;20.50;13.13;;;6.50;99.90;;;;;;5090574;28;20048;-63
2022/12/03 02:11:40;;;;;;;21.45;13.45;;;6.60;99.90;;;;;;5091970;28;20032;-63
2022/12/03 02:14:12;;;;;;;21.52;12.85;;;6.50;57.40;;;;;;5093566;28;20084;-63
2022/12/03 02:16:39;;;;;;;22.73;13.10;;;6.50;3.40;;;;;;5088434;28;20553;-63
2022/12/03 02:19:15;;;;;;;19.00;12.75;;;6.70;1.00;;;;;;5074804;28;20048;-63
2022/12/03 02:21:55;;;;;;;22.67;13.02;;;6.70;1.00;;;;;;5073349;28;20048;-63
2022/12/03 02:24:46;;;;;;;18.27;12.32;;;6.60;1.00;;;;;;5073169;28;20044;-63
2022/12/03 02:27:11;;;;;;;16.92;12.00;;;6.50;1.00;;;;;;5082645;28;20047;-63
2022/12/03 02:29:37;;;;;;;18.52;12.43;;;6.50;99.90;;;;;;5079070;28;20044;-63
2022/12/03 02:32:03;;;;;;;21.83;13.40;;;6.50;99.90;;;;;;5091939;28;20040;-63
2022/12/03 02:34:33;;;;;;;21.30;12.32;;;6.50;99.90;;;;;;5093260;28;20081;-63
2022/12/03 02:36:59;;;;;;;25.20;13.57;;;6.50;99.90;;;;;;5092480;28;20398;-63
2022/12/03 02:39:25;;;;;;;18.92;12.98;;;6.60;99.90;;;;;;5093135;28;20040;-63
2022/12/03 02:44:35;;;;;;;21.77;13.27;;;6.50;99.90;;;;;;5073007;28;20044;-63
2022/12/03 02:47:01;;;;;;;18.33;13.40;;;6.50;99.90;;;;;;5073381;28;20031;-63
2022/12/03 02:49:26;;;;;;;21.45;12.80;;;6.50;99.90;;;;;;5072671;28;20105;-63
2022/12/03 02:51:52;;;;;;;20.65;12.75;;;6.50;99.90;;;;;;5072423;28;20505;-63
2022/12/03 02:54:18;;;;;;;20.77;13.25;;;6.50;99.90;;;;;;5072490;28;20451;-63
2022/12/03 02:56:43;;;;;;;25.13;13.95;;;6.50;99.90;;;;;;5075819;28;20060;-63
2022/12/03 02:59:09;;;;;;;21.42;13.82;;;6.50;99.90;;;;;;5077593;28;20072;-63
2022/12/03 03:01:34;;;;;;;18.83;13.23;;;6.50;99.90;;;;;;5092868;28;20089;-63
2022/12/03 03:04:01;;;;;;;18.58;13.27;;;6.60;99.90;;;;;;5073836;28;20029;-63
2022/12/03 03:06:27;;;;;;;21.83;13.95;;;6.60;99.90;;;;;;5079559;28;20107;-63
2022/12/03 03:08:53;;;;;;;19.88;13.15;;;6.60;99.90;;;;;;5092549;28;20075;-63
2022/12/03 03:11:18;;;;;;;20.63;13.43;;;6.60;99.90;;;;;;5091658;28;20035;-63
2022/12/03 03:13:44;;;;;;;18.33;13.30;;;6.70;99.90;;;;;;5081616;28;20040;-63
2022/12/03 03:16:10;;;;;;;22.52;13.23;;;6.80;99.90;;;;;;5085616;28;20044;-64
2022/12/03 03:18:36;;;;;;;17.73;12.25;;;6.60;99.90;;;;;;5092305;28;20480;-63
2022/12/03 03:21:02;;;;;;;21.10;14.13;;;6.70;99.90;;;;;;5092101;28;20032;-63
2022/12/03 03:23:28;;;;;;;23.40;13.70;;;6.60;99.90;;;;;;5092150;28;20036;-63
2022/12/03 03:26:02;;;;;;;22.52;12.98;;;6.60;99.90;;;;;;5092046;28;20042;-63
2022/12/03 03:28:29;;;;;;;20.30;13.70;;;6.60;99.90;;;;;;5075841;28;20036;-63
2022/12/03 03:30:55;;;;;;;21.83;13.77;;;6.70;99.90;;;;;;5088933;28;20482;-63
2022/12/03 03:33:21;;;;;;;18.55;13.38;;;6.60;99.90;;;;;;5092172;28;20122;-63
2022/12/03 03:35:47;;;;;;;20.58;13.63;;;6.50;99.90;;;;;;5092016;28;20075;-63
2022/12/03 03:38:14;;;;;;;24.48;13.18;;;6.60;99.90;;;;;;5091892;28;20054;-63
2022/12/03 03:40:41;;;;;;;20.42;13.48;;;6.60;99.90;;;;;;5089343;28;20032;-63
2022/12/03 03:43:06;;;;;;;20.83;13.60;;;6.60;99.90;;;;;;5083773;28;20494;-64
2022/12/03 03:45:32;;;;;;;21.42;13.68;;;6.60;99.90;;;;;;5073209;28;20071;-63
2022/12/03 03:47:59;;;;;;;21.25;14.38;;;6.50;99.90;;;;;;5071743;28;20456;-63
2022/12/03 03:50:26;;;;;;;20.17;13.50;;;6.50;99.90;;;;;;5074884;28;20036;-63
2022/12/03 03:52:53;;;;;;;22.75;13.77;;;6.50;99.90;;;;;;5071798;28;20041;-63
2022/12/03 03:55:19;;;;;;;19.80;13.63;;;6.60;99.90;;;;;;5071571;28;20390;-63
2022/12/03 03:57:45;;;;;;;23.98;13.98;;;6.50;99.90;;;;;;5078838;28;20052;-63
2022/12/03 04:00:12;;;;;;;20.95;14.00;;;7.00;99.90;;;;;;5088347;28;20044;-63
2022/12/03 04:02:39;;;;;;;20.58;13.70;;;6.60;99.90;;;;;;5082743;28;20502;-63
2022/12/03 04:05:06;;;;;;;24.08;14.20;;;6.50;99.90;;;;;;5071330;28;20123;-63
2022/12/03 04:07:31;;;;;;;21.67;14.40;;;6.60;99.90;;;;;;5071726;28;20033;-64
2022/12/03 04:09:57;;;;;;;19.77;13.40;;;6.50;99.90;;;;;;5091449;28;20040;-64
2022/12/03 04:15:07;;;;;;;22.55;14.98;;;6.60;99.90;;;;;;5071402;28;20067;-63
2022/12/03 04:17:33;;;;;;;24.65;15.70;;;6.60;99.90;;;;;;5077348;28;20397;-63
2022/12/03 04:19:58;;;;;;;20.98;14.05;;;6.60;90.30;;;;;;5091413;28;20032;-64
2022/12/03 04:22:39;;;;;;;22.70;14.65;;;6.60;72.90;;;;;;5091280;28;20040;-63
2022/12/03 04:30:33;;;;;;;21.98;15.18;;;6.50;24.10;;;;;;5089472;28;20059;-63
2022/12/03 04:35:43;;;;;;;26.55;16.63;;;6.60;5.70;;;;;;5094189;28;20063;-63
2022/12/03 04:38:14;;;;;;;24.42;15.38;;;6.60;1.00;;;;;;5095422;28;20421;-63
2022/12/03 04:43:25;;;;;;;24.98;15.52;;;6.50;1.00;;;;;;5086137;28;20430;-63
2022/12/03 04:45:50;;;;;;;23.35;15.88;;;6.50;1.00;;;;;;5075267;28;20036;-63
2022/12/03 04:48:16;;;;;;;22.55;15.85;;;6.50;1.00;;;;;;5086455;28;20414;-63
2022/12/03 04:50:42;;;;;;;22.15;16.40;;;6.50;1.00;;;;;;5075830;28;20044;-63
2022/12/03 04:53:08;;;;;;;25.92;16.98;;;6.50;1.00;;;;;;5074709;28;20090;-63
2022/12/03 04:55:33;;;;;;;25.25;16.83;;;6.50;1.00;;;;;;5074774;28;20046;-63
2022/12/03 04:57:59;;;;;;;24.10;17.80;;;6.50;1.00;;;;;;5081747;28;20118;-63
2022/12/03 05:00:25;;;;;;;24.55;15.73;;;6.50;1.00;;;;;;5094980;28;20040;-63
2022/12/03 05:02:50;;;;;;;25.30;17.02;;;6.60;1.00;;;;;;5093592;28;20040;-63
2022/12/03 05:05:16;;;;;;;24.80;16.33;;;6.50;1.00;;;;;;5090683;28;20615;-63
2022/12/03 05:07:42;;;;;;;28.33;16.42;;;6.50;1.00;;;;;;5092790;28;20040;-63
2022/12/03 05:10:08;;;;;;;23.83;16.58;;;6.50;1.00;;;;;;5094034;28;20040;-63
2022/12/03 05:12:34;;;;;;;24.15;17.10;;;6.50;1.00;;;;;;5094763;28;20070;-63
2022/12/03 05:15:00;;;;;;;25.05;17.10;;;6.50;1.00;;;;;;5094765;28;20514;-63
2022/12/03 05:17:26;;;;;;;26.38;17.05;;;6.50;1.00;;;;;;5094933;28;20036;-63
2022/12/03 05:22:36;;;;;;;27.80;17.45;;;6.50;1.00;;;;;;5074426;28;20663;-63
2022/12/03 05:25:01;;;;;;;27.42;18.10;;;7.10;1.00;;;;;;5074141;28;20037;-64
2022/12/03 05:27:27;;;;;;;24.88;17.20;;;6.40;1.00;;;;;;5074091;28;20033;-63
2022/12/03 05:29:53;;;;;;;26.08;16.98;;;6.50;1.00;;;;;;5076556;28;20048;-63
2022/12/03 05:32:18;;;;;;;24.25;17.27;;;6.40;1.00;;;;;;5074259;28;20134;-63
2022/12/03 05:34:44;;;;;;;27.95;17.33;;;6.50;1.00;;;;;;5084484;28;20036;-63
2022/12/03 05:37:10;;;;;;;30.50;17.85;;;6.50;1.00;;;;;;5085221;28;20048;-63
2022/12/03 05:39:36;;;;;;;28.83;18.65;;;6.40;1.00;;;;;;5080808;28;20413;-63
2022/12/03 05:44:46;;;;;;;25.50;16.98;;;6.50;1.00;;;;;;5092212;28;20063;-63
2022/12/03 05:47:11;;;;;;;26.38;18.27;;;6.40;1.00;;;;;;5093883;28;20482;-63
2022/12/03 05:49:37;;;;;;;25.73;17.42;;;6.40;1.00;;;;;;5079722;28;20076;-63
2022/12/03 05:52:02;;;;;;;27.02;17.65;;;6.40;1.00;;;;;;5083229;28;20089;-63
2022/12/03 05:54:28;;;;;;;28.08;17.23;;;6.40;1.00;;;;;;5074039;28;20045;-63
2022/12/03 05:56:53;;;;;;;27.02;16.88;;;6.40;1.00;;;;;;5073870;28;20048;-63
2022/12/03 05:59:19;;;;;;;25.60;16.60;;;6.40;1.00;;;;;;5073685;28;20516;-63
2022/12/03 06:01:45;;;;;;;26.48;17.80;;;6.40;1.00;;;;;;5075841;28;20082;-63
2022/12/03 06:04:10;;;;;;;27.00;17.30;;;6.40;1.00;;;;;;5074752;28;20033;-63
2022/12/03 06:06:36;;;;;;;26.08;17.27;;;6.40;1.00;;;;;;5087479;28;20072;-63
2022/12/03 06:09:01;;;;;;;22.33;15.85;;;6.40;1.00;;;;;;5093012;28;20114;-63
2022/12/03 06:11:28;;;;;;;25.83;15.98;;;6.40;1.00;;;;;;5093833;28;20036;-63
2022/12/03 06:13:54;;;;;;;25.75;16.63;;;6.40;1.00;;;;;;5078847;28;20071;-63
2022/12/03 06:16:20;;;;;;;24.63;16.02;;;6.30;1.00;;;;;;5073515;28;20651;-63
2022/12/03 06:18:45;;;;;;;29.40;17.55;;;6.30;1.00;;;;;;5078963;28;20379;-63
2022/12/03 06:21:11;;;;;;;27.33;17.10;;;6.30;1.00;;;;;;5078402;28;20394;-63
2022/12/03 06:23:43;;;;;;;25.42;17.17;;;6.30;1.00;;;;;;5085825;28;20040;-63
2022/12/03 06:26:12;;;;;;;25.67;16.80;;;6.30;1.00;;;;;;5093197;28;20032;-63
2022/12/03 06:28:38;;;;;;;23.70;16.80;;;6.30;1.00;;;;;;5091466;28;20047;-63
2022/12/03 06:31:03;;;;;;;24.02;15.43;;;6.30;1.00;;;;;;5093438;28;20044;-63
2022/12/03 06:33:29;;;;;;;21.75;13.50;;;6.30;1.00;;;;;;5090992;28;20489;-63
2022/12/03 06:35:54;;;;;;;25.38;15.55;;;6.30;1.00;;;;;;5076379;28;20036;-63
2022/12/03 06:38:21;;;;;;;20.92;14.68;;;6.30;1.00;;;;;;5071390;28;20435;-63
2022/12/03 06:40:46;;;;;;;25.60;14.98;;;6.20;1.00;;;;;;5093147;28;20097;-63
2022/12/03 06:43:12;;;;;;;24.23;15.73;;;6.20;1.00;;;;;;5093202;28;20486;-63
2022/12/03 06:45:38;;;;;;;21.95;15.00;;;6.20;1.00;;;;;;5091913;28;20044;-63
2022/12/03 06:48:03;;;;;;;24.55;15.73;;;6.20;1.00;;;;;;5092124;28;20040;-63
2022/12/03 06:50:29;;;;;;;23.58;15.30;;;6.20;1.00;;;;;;5090288;28;20131;-63
2022/12/03 06:52:54;;;;;;;23.90;15.35;;;6.20;1.00;;;;;;5074396;28;20068;-63
2022/12/03 06:55:20;;;;;;;23.92;14.70;;;6.30;1.00;;;;;;5072555;28;20040;-63
2022/12/03 06:57:46;;;;;;;26.38;16.45;;;6.20;1.00;;;;;;5072450;28;20040;-64
2022/12/03 07:00:12;;;;;;;25.52;16.08;;;6.20;1.00;;;;;;5090442;28;20028;-63
2022/12/03 07:02:38;;;;;;;23.60;15.02;;;6.10;1.00;;;;;;5089821;28;20043;-63
2022/12/03 07:05:04;;;;;;;23.73;14.80;;;6.10;1.00;;;;;;5076292;28;20036;-63
2022/12/03 07:07:29;;;;;;;23.67;15.27;;;6.20;1.00;;;;;;5074760;28;20122;-63
2022/12/03 07:09:55;;;;;;;24.70;15.05;;;6.20;1.00;;;;;;5079567;28;20136;-63
2022/12/03 07:12:20;;;;;;;21.38;14.73;;;6.20;1.00;;;;;;5086626;28;20125;-63
2022/12/03 07:14:46;;;;;;;24.17;15.40;;;6.20;1.00;;;;;;5082611;28;20101;-63
2022/12/03 07:17:11;;;;;;;25.20;14.63;;;6.10;1.00;;;;;;5091790;28;20100;-63
2022/12/03 07:19:37;;;;;;;22.20;14.73;;;6.10;1.00;;;;;;5090336;28;20044;-63
2022/12/03 07:22:03;;;;;;;24.50;14.50;;;6.10;1.00;;;;;;5085469;28;20036;-63
2022/12/03 07:24:28;;;;;;;23.50;14.77;;;6.10;99.90;;;;;;5074289;28;20082;-63
2022/12/03 07:26:54;;;;;;;26.58;16.13;;;6.10;99.90;;;;;;5071911;28;20107;-63
2022/12/03 07:29:19;;;;;;;26.15;16.40;;;6.10;99.90;;;;;;5071970;28;20037;-63
2022/12/03 07:31:45;;;;;;;27.23;16.45;;;6.10;99.90;;;;;;5071841;28;20044;-63
2022/12/03 07:34:11;;;;;;;24.95;16.25;;;6.10;99.90;;;;;;5072826;28;20107;-63
2022/12/03 07:36:36;;;;;;;23.90;14.93;;;6.10;99.90;;;;;;5081274;28;20036;-63
2022/12/03 07:39:02;;;;;;;24.30;15.27;;;6.00;99.90;;;;;;5075125;28;20040;-63
2022/12/03 07:41:27;;;;;;;21.95;14.27;;;6.00;99.90;;;;;;5081969;28;20028;-63
2022/12/03 07:43:53;;;;;;;25.65;16.08;;;6.00;99.90;;;;;;5088907;28;20111;-63
2022/12/03 07:46:18;;;;;;;27.88;15.80;;;6.10;99.90;;;;;;5090115;28;20024;-63
2022/12/03 07:48:44;;;;;;;23.25;14.98;;;6.10;99.90;;;;;;5090204;28;20040;-63
2022/12/03 07:51:10;;;;;;;24.70;15.93;;;6.00;99.90;;;;;;5083726;28;20036;-63
2022/12/03 07:53:35;;;;;;;24.88;15.43;;;6.00;99.90;;;;;;5074462;28;20045;-63
2022/12/03 07:56:03;;;;;;;24.10;15.15;;;6.00;99.90;;;;;;5071715;28;20490;-63
2022/12/03 07:58:29;;;;;;;24.15;15.55;;;5.90;99.90;;;;;;5074870;28;20043;-63
2022/12/03 08:00:55;;;;;;;23.20;14.93;;;6.00;99.90;;;;;;5071093;28;20035;-63
2022/12/03 08:03:21;;;;;;;21.55;13.82;;;5.90;99.90;;;;;;5076533;28;20024;-63
2022/12/03 08:05:46;;;;;;;21.40;14.98;;;5.90;99.90;;;;;;5084604;28;20072;-63
2022/12/03 08:08:12;;;;;;;22.55;13.20;;;5.90;99.90;;;;;;5071310;28;20086;-63
2022/12/03 08:10:37;;;;;;;23.83;15.07;;;5.90;99.90;;;;;;5071471;28;20048;-63
2022/12/03 08:13:09;;;;;;;20.63;14.20;;;5.90;99.90;;;;;;5077153;28;20044;-63
2022/12/03 08:15:35;;;;;;;23.45;15.70;;;5.90;99.90;;;;;;5075940;28;20533;-63
2022/12/03 08:18:11;;;;;;;24.33;15.98;;;5.80;99.90;;;;;;5080686;28;20101;-64
2022/12/03 08:20:39;;;;;;;20.13;14.13;;;5.90;99.90;;;;;;5075528;28;20097;-63
2022/12/03 08:23:22;;;;;;;24.48;15.02;;;5.80;99.90;;;;;;5079232;28;20470;-64
2022/12/03 08:25:49;;;;;;;23.80;15.07;;;5.80;99.90;;;;;;5074127;28;20036;-64
2022/12/03 08:28:25;;;;;;;25.73;14.15;;;5.80;99.90;;;;;;5090989;28;20130;-63
2022/12/03 08:31:04;;;;;;;23.52;14.95;;;5.80;99.90;;;;;;5083316;28;20043;-64
2022/12/03 08:33:35;;;;;;;25.58;16.33;;;5.80;99.90;;;;;;5078186;28;20055;-63
2022/12/03 08:36:11;;;;;;;26.45;15.13;;;5.80;99.90;;;;;;5075738;28;20116;-63
2022/12/03 08:38:37;;;;;;;24.25;15.60;;;5.80;99.90;;;;;;5078292;28;20129;-64
2022/12/03 08:41:11;;;;;;;25.50;14.93;;;5.70;99.90;;;;;;5075474;28;20090;-64
2022/12/03 08:43:41;;;;;;;26.02;15.73;;;5.80;99.90;;;;;;5087156;28;20040;-63
2022/12/03 08:46:11;;;;;;;25.30;15.75;;;5.80;99.90;;;;;;5088784;28;20537;-63
2022/12/03 08:48:38;;;;;;;25.70;15.90;;;5.80;99.90;;;;;;5084099;28;20036;-63
2022/12/03 08:51:26;;;;;;;27.50;16.25;;;5.80;99.90;;;;;;5075448;28;20109;-63
2022/12/03 08:54:06;;;;;;;25.75;15.70;;;5.80;99.90;;;;;;5079796;28;20048;-63
2022/12/03 08:56:35;;;;;;;22.52;15.65;;;5.70;99.90;;;;;;5075489;28;20044;-63
2022/12/03 08:59:25;;;;;;;23.58;14.95;;;5.70;99.90;;;;;;5077694;28;20041;-63
2022/12/03 09:01:52;;;;;;;23.30;15.00;;;5.80;99.90;;;;;;5078686;28;20078;-63
2022/12/03 09:04:26;;;;;;;23.08;13.70;;;5.70;99.90;;;;;;5082525;28;20039;-64
2022/12/03 09:06:53;;;;;;;23.80;14.25;;;5.70;99.90;;;;;;5074278;28;20037;-63
2022/12/03 09:09:19;;;;;;;22.40;14.25;;;5.80;99.90;;;;;;5072648;28;20045;-63
2022/12/03 09:11:45;;;;;;;23.30;14.77;;;5.70;99.90;;;;;;5082701;28;20040;-63
2022/12/03 09:14:12;;;;;;;21.70;14.00;;;5.70;99.90;;;;;;5068038;28;20040;-63
2022/12/03 09:16:37;;;;;;;24.20;14.85;;;5.70;99.90;;;;;;5091772;28;20056;-63
2022/12/03 09:19:03;;;;;;;35.72;15.65;;;5.70;99.90;;;;;;5091493;28;20373;-63
2022/12/03 09:21:29;;;;;;;21.90;14.27;;;5.70;99.90;;;;;;5077375;28;20047;-63
2022/12/03 09:23:54;;;;;;;23.80;15.50;;;5.70;99.90;;;;;;5074595;28;20028;-63
2022/12/03 09:26:20;;;;;;;26.13;14.30;;;5.70;99.90;;;;;;5083063;28;20543;-63
2022/12/03 09:28:47;;;;;;;22.38;15.00;;;5.60;99.90;;;;;;5080078;28;20040;-63
2022/12/03 09:31:13;;;;;;;21.52;14.32;;;5.60;99.90;;;;;;5085545;28;20631;-63
2022/12/03 09:33:39;;;;;;;23.65;14.32;;;5.60;99.90;;;;;;5081121;28;20093;-63
2022/12/03 09:36:05;;;;;;;23.83;14.65;;;5.70;99.90;;;;;;5088863;28;20036;-62
2022/12/03 09:38:31;;;;;;;24.30;14.65;;;5.60;99.90;;;;;;5081717;28;20035;-63
2022/12/03 09:40:57;;;;;;;22.52;15.15;;;5.60;99.90;;;;;;5089275;28;20563;-63
2022/12/03 09:43:23;;;;;;;28.35;16.08;;;5.60;99.90;;;;;;5077625;28;20090;-63
2022/12/03 09:45:48;;;;;;;22.38;14.48;;;5.60;99.90;;;;;;5083468;28;20470;-64
2022/12/03 09:48:16;;;;;;;20.88;14.00;;;5.60;99.90;;;;;;5083912;28;20036;-64
2022/12/03 09:50:43;;;;;;;23.80;15.13;;;5.60;99.90;;;;;;5080285;28;20040;-63
2022/12/03 09:53:17;;;;;;;23.45;15.23;;;5.60;99.90;;;;;;5081799;28;20032;-63
2022/12/03 09:55:44;;;;;;;23.88;15.40;;;5.70;99.90;;;;;;5083319;28;20036;-63
2022/12/03 09:58:12;;;;;;;22.63;15.20;;;5.60;99.90;;;;;;5084457;28;20161;-63
2022/12/03 10:00:38;;;;;;;26.73;15.98;;;5.60;99.90;;;;;;5080134;28;20114;-63
2022/12/03 10:03:06;;;;;;;26.15;14.77;;;5.60;99.90;;;;;;5083370;28;20036;-63
2022/12/03 10:05:33;;;;;;;22.80;15.10;;;5.60;99.90;;;;;;5077471;28;20033;-63
2022/12/03 10:08:06;;;;;;;24.20;15.57;;;5.60;99.90;;;;;;5086499;28;20067;-63
2022/12/03 10:10:32;;;;;;;25.38;16.10;;;5.60;99.90;;;;;;5088139;28;20032;-63
2022/12/03 10:12:58;;;;;;;23.67;15.43;;;6.50;99.90;;;;;;5084412;28;20541;-63
2022/12/03 10:15:24;;;;;;;23.02;14.95;;;5.50;99.90;;;;;;5078170;28;20185;-63
2022/12/03 10:17:51;;;;;;;23.58;15.45;;;5.50;99.90;;;;;;5087248;28;20065;-63
2022/12/03 10:20:18;;;;;;;22.38;15.77;;;5.50;99.90;;;;;;5086578;28;20490;-63
2022/12/03 10:22:46;;;;;;;23.17;16.13;;;5.50;99.90;;;;;;5084570;28;20496;-63
2022/12/03 10:25:14;;;;;;;26.10;16.38;;;5.50;99.90;;;;;;5086600;28;20044;-63
2022/12/03 10:27:40;;;;;;;26.40;17.00;;;5.50;99.90;;;;;;5082461;28;20044;-63
2022/12/03 10:30:21;;;;;;;29.55;17.50;;;5.50;99.90;;;;;;5074429;28;20036;-63
2022/12/03 10:32:49;;;;;;;25.63;17.02;;;5.40;99.90;;;;;;5084924;28;20039;-63
2022/12/03 10:35:23;;;;;;;28.15;17.60;;;5.40;99.90;;;;;;5080963;28;20520;-63
2022/12/03 10:38:21;;;;;;;26.90;17.38;;;5.40;99.90;;;;;;5072828;28;20062;-63
2022/12/03 10:40:46;;;;;;;27.83;17.92;;;5.40;99.90;;;;;;5085991;28;20051;-63
2022/12/03 10:43:18;;;;;;;28.25;18.65;;;5.30;99.90;;;;;;5071605;28;20044;-63
2022/12/03 10:46:11;;;;;;;28.85;18.10;;;5.30;99.90;;;;;;5080715;28;20047;-63
2022/12/03 10:48:37;;;;;;;26.55;18.10;;;5.30;99.90;;;;;;5070351;28;20052;-63
2022/12/03 10:51:10;;;;;;;28.73;18.50;;;5.30;99.90;;;;;;5076664;28;20039;-63
2022/12/03 10:53:39;;;;;;;29.50;17.95;;;5.30;99.90;;;;;;5083855;28;20051;-63
2022/12/03 10:56:07;;;;;;;27.25;18.20;;;5.30;99.90;;;;;;5089773;28;20028;-63
2022/12/03 10:58:37;;;;;;;28.63;18.27;;;5.30;99.90;;;;;;5081987;28;20625;-63
2022/12/03 11:01:14;;;;;;;25.75;17.55;;;5.20;99.90;;;;;;5089437;28;20044;-63
2022/12/03 11:03:39;;;;;;;31.95;19.38;;;5.30;99.90;;;;;;5087651;28;20115;-63
2022/12/03 11:06:05;;;;;;;27.23;18.02;;;5.20;99.90;;;;;;5088578;28;20115;-63
2022/12/03 11:08:35;;;;;;;33.80;19.50;;;5.20;99.90;;;;;;5092272;28;20105;-63
2022/12/03 11:11:14;;;;;;;29.33;19.05;;;5.20;99.90;;;;;;5075147;28;20525;-63
2022/12/03 11:13:40;;;;;;;31.08;19.10;;;5.20;99.90;;;;;;5084022;28;20041;-63
2022/12/03 11:16:07;;;;;;;29.05;18.77;;;5.20;99.90;;;;;;5086932;28;20063;-63
2022/12/03 11:18:35;;;;;;;29.80;18.85;;;5.20;99.90;;;;;;5084015;28;20036;-63
2022/12/03 11:21:10;;;;;;;25.38;17.15;;;5.20;99.90;;;;;;5090361;28;20043;-63
2022/12/03 11:23:50;;;;;;;29.67;18.48;;;5.20;99.90;;;;;;5041155;28;20126;-63
2022/12/03 11:26:37;;;;;;;28.02;18.10;;;5.20;99.90;;;;;;5088606;28;20119;-63
2022/12/03 11:29:03;;;;;;;26.38;17.67;;;5.20;99.90;;;;;;5075863;28;20044;-62
2022/12/03 11:31:35;;;;;;;30.10;18.50;;;5.10;99.90;;;;;;5084753;28;20036;-62
2022/12/03 11:34:28;;;;;;;28.92;18.98;;;5.20;99.90;;;;;;5076162;28;20171;-64
2022/12/03 11:37:20;;;;;;;33.67;20.10;;;5.30;99.90;;;;;;5062114;28;20249;-64
2022/12/03 11:39:49;;;;;;;28.52;18.25;;;5.30;99.90;;;;;;5080024;28;20044;-64
2022/12/03 11:42:24;;;;;;;29.52;18.48;;;5.30;99.90;;;;;;5076495;28;20495;-64
2022/12/03 11:45:01;;;;;;;27.73;18.17;;;5.30;99.90;;;;;;5089850;28;20059;-63
2022/12/03 11:47:32;;;;;;;27.23;18.15;;;5.30;99.90;;;;;;5084502;28;20405;-64
2022/12/03 11:49:58;;;;;;;30.27;18.77;;;5.30;99.90;;;;;;5084407;28;20057;-62
2022/12/03 11:52:39;;;;;;;28.48;18.55;;;5.30;99.90;;;;;;5086005;28;21268;-63
2022/12/03 11:55:34;;;;;;;26.23;16.77;;;5.30;99.90;;;;;;5084232;28;20055;-63
2022/12/03 11:58:03;;;;;;;24.98;15.93;;;5.30;99.90;;;;;;5077459;28;20132;-62
2022/12/03 12:00:28;;;;;;;28.65;18.27;;;5.20;99.90;;;;;;5075639;28;20066;-62
2022/12/03 12:02:56;;;;;;;28.92;18.75;;;5.20;99.90;;;;;;5079377;28;20024;-62
2022/12/03 12:05:33;;;;;;;26.85;18.40;;;5.10;99.90;;;;;;5089035;28;20036;-62
2022/12/03 12:08:00;;;;;;;25.42;16.70;;;5.20;99.90;;;;;;5082477;28;20036;-62
2022/12/03 12:10:39;;;;;;;24.08;17.10;;;5.10;99.90;;;;;;5079761;28;20124;-62
2022/12/03 12:13:05;;;;;;;28.63;19.10;;;5.20;99.90;;;;;;5087148;28;20072;-62
2022/12/03 12:15:42;;;;;;;28.85;17.85;;;5.10;99.90;;;;;;5085364;28;20058;-63
2022/12/03 12:18:42;;;;;;;26.52;17.98;;;5.20;99.90;;;;;;5089107;28;20050;-62
2022/12/03 12:21:43;;;;;;;26.25;16.63;;;5.20;99.90;;;;;;5075821;28;20040;-62
2022/12/03 12:24:28;;;;;;;28.73;17.85;;;5.20;99.90;;;;;;5071225;28;20033;-62
2022/12/03 12:26:55;;;;;;;26.13;17.67;;;5.20;99.90;;;;;;5080412;28;20074;-62
2022/12/03 12:29:21;;;;;;;30.08;19.08;;;5.20;99.90;;;;;;5085170;28;20039;-62
2022/12/03 12:31:48;;;;;;;28.02;18.17;;;5.20;99.90;;;;;;5071727;28;20040;-62
2022/12/03 12:34:14;;;;;;;26.05;17.42;;;5.30;99.90;;;;;;5070913;28;20481;-62
2022/12/03 12:36:40;;;;;;;26.38;17.73;;;5.30;99.90;;;;;;5084625;28;20028;-63
2022/12/03 12:39:14;;;;;;;27.05;17.05;;;5.30;99.90;;;;;;5087669;28;20560;-62
2022/12/03 12:41:41;;;;;;;27.40;17.80;;;5.30;99.90;;;;;;5085021;28;20028;-62
2022/12/03 12:44:10;;;;;;;24.60;17.23;;;5.30;99.90;;;;;;5086028;28;20043;-62
2022/12/03 12:46:37;;;;;;;28.80;19.50;;;5.30;99.90;;;;;;5087401;28;20115;-62
2022/12/03 12:49:10;;;;;;;26.70;18.17;;;5.30;99.90;;;;;;5089052;28;20505;-62
2022/12/03 12:51:39;;;;;;;29.85;18.27;;;5.30;99.90;;;;;;5084637;28;20043;-62
2022/12/03 12:54:10;;;;;;;28.20;18.48;;;5.30;99.90;;;;;;5085106;28;20036;-62
2022/12/03 12:56:35;;;;;;;30.13;19.40;;;5.20;99.90;;;;;;5082483;28;20040;-63
2022/12/03 12:59:23;;;;;;;28.95;19.05;;;5.20;99.90;;;;;;5091393;28;20066;-62
2022/12/03 13:01:49;;;;;;;27.83;18.92;;;5.20;99.90;;;;;;5089261;28;20035;-62
2022/12/03 13:04:19;;;;;;;30.35;18.60;;;5.20;99.90;;;;;;5081336;28;20069;-62
2022/12/03 13:06:47;;;;;;;28.42;18.77;;;5.20;99.90;;;;;;5087469;28;20542;-62
2022/12/03 13:09:31;;;;;;;30.73;19.00;;;5.20;99.90;;;;;;5077396;28;20059;-62
2022/12/03 13:11:59;;;;;;;29.85;19.98;;;5.20;99.90;;;;;;5083208;28;20066;-62